Time;durP1;ratioP1;P1;durP2;ratioP2;P2;SDS_P1;SDS_P2;PMS_P1;PMS_P2;Temp;Humidity;BMP_temperature;BMP_pressure;BME280_temperature;BME280_humidity;BME280_pressure;Samples;Min_cycle;Max_cycle;Signal;HPM_P1;HPM_P2
2024/01/13 00:00:16;;;;;;;54.17;28.07;;;;;;;-1.67;82.44;96407.63;5030582;28;20242;-86
2024/01/13 00:02:59;;;;;;;55.23;29.70;;;;;;;-1.62;82.55;96404.84;5024745;28;20194;-86
2024/01/13 00:05:26;;;;;;;53.10;28.47;;;;;;;-1.57;82.14;96391.09;5038665;28;20641;-87
2024/01/13 00:07:57;;;;;;;49.00;26.37;;;;;;;-1.61;81.62;96368.63;5033762;28;20305;-86
2024/01/13 00:10:26;;;;;;;58.70;29.37;;;;;;;-1.54;82.03;96383.34;5030430;28;20719;-86
2024/01/13 00:13:15;;;;;;;;;;;;;;;;;;;;;
2024/01/13 00:15:47;;;;;;;51.40;27.77;;;;;;;-1.50;81.28;96362.06;5044528;28;20573;-86
2024/01/13 00:18:31;;;;;;;56.37;29.87;;;;;;;-1.51;81.05;96364.69;5030845;28;20700;-86
2024/01/13 00:20:58;;;;;;;58.57;30.73;;;;;;;-1.51;81.41;96357.09;5031644;28;20880;-86
2024/01/13 00:23:24;;;;;;;60.43;31.83;;;;;;;-1.48;81.33;96362.81;5030375;28;20202;-86
2024/01/13 00:25:51;;;;;;;63.57;30.57;;;;;;;-1.43;81.16;96363.38;5050908;28;20624;-86
2024/01/13 00:28:21;;;;;;;61.00;32.07;;;;;;;-1.48;81.29;96372.09;5050460;28;20232;-86
2024/01/13 00:30:48;;;;;;;63.53;31.90;;;;;;;-1.45;81.65;96369.41;5049953;28;20201;-86
2024/01/13 00:33:15;;;;;;;57.90;31.63;;;;;;;-1.41;81.46;96370.88;5044961;28;20288;-86
2024/01/13 00:35:42;;;;;;;65.60;32.57;;;;;;;-1.34;81.08;96359.50;5038313;28;20201;-86
2024/01/13 00:38:11;;;;;;;58.03;29.80;;;;;;;-1.40;80.95;96352.28;5037095;28;20214;-86
2024/01/13 00:40:37;;;;;;;55.90;29.17;;;;;;;-1.41;81.01;96343.09;5041013;28;20224;-86
2024/01/13 00:43:04;;;;;;;55.70;30.10;;;;;;;-1.46;80.86;96334.94;5050265;28;20235;-86
2024/01/13 00:45:30;;;;;;;53.40;29.20;;;;;;;-1.47;81.16;96341.72;5032994;28;20198;-86
2024/01/13 00:48:08;;;;;;;55.67;29.37;;;;;;;-1.46;80.94;96340.00;5043066;28;20218;-86
2024/01/13 00:50:36;;;;;;;51.17;27.23;;;;;;;-1.54;80.99;96332.84;5032144;28;20276;-86
2024/01/13 00:53:02;;;;;;;45.67;26.43;;;;;;;-1.61;80.92;96321.47;5029704;28;20249;-86
2024/01/13 00:55:29;;;;;;;43.67;23.67;;;;;;;-1.67;81.23;96333.59;5037930;28;20187;-86
2024/01/13 00:57:55;;;;;;;47.17;26.40;;;;;;;-1.67;81.54;96336.94;5030555;28;20707;-86
2024/01/13 01:00:24;;;;;;;46.83;27.53;;;;;;;-1.68;81.95;96345.41;5029495;28;20309;-86
2024/01/13 01:02:51;;;;;;;47.10;26.17;;;;;;;-1.60;81.42;96343.28;5029016;28;20202;-86
2024/01/13 01:05:17;;;;;;;48.07;26.67;;;;;;;-1.50;81.23;96341.06;5036140;28;20206;-86
2024/01/13 01:07:45;;;;;;;50.20;26.03;;;;;;;-1.49;81.05;96337.63;5025538;28;20221;-86
2024/01/13 01:10:11;;;;;;;50.33;27.87;;;;;;;-1.47;80.79;96334.13;5029219;28;20205;-86
2024/01/13 01:12:38;;;;;;;55.20;28.33;;;;;;;-1.46;81.14;96332.41;5029316;28;20280;-86
2024/01/13 01:15:05;;;;;;;55.37;27.93;;;;;;;-1.49;81.18;96337.63;5044532;28;20223;-86
2024/01/13 01:17:32;;;;;;;52.70;27.93;;;;;;;-1.44;81.00;96336.50;5032773;28;20222;-86
2024/01/13 01:20:00;;;;;;;52.27;28.40;;;;;;;-1.39;80.80;96333.72;5028802;28;20206;-86
2024/01/13 01:22:26;;;;;;;53.47;26.53;;;;;;;-1.43;80.60;96324.69;5027035;28;20743;-86
2024/01/13 01:24:54;;;;;;;46.97;25.97;;;;;;;-1.41;80.65;96330.47;5028870;28;20211;-86
2024/01/13 01:27:20;;;;;;;49.90;26.53;;;;;;;-1.42;80.83;96337.22;5035140;28;20718;-86
2024/01/13 01:29:47;;;;;;;45.80;24.73;;;;;;;-1.50;81.30;96348.63;5049568;28;20666;-86
2024/01/13 01:32:13;;;;;;;50.10;25.53;;;;;;;-1.48;81.05;96349.38;5048895;28;20578;-85
2024/01/13 01:34:39;;;;;;;41.03;23.33;;;;;;;-1.46;81.16;96352.63;5035594;28;20569;-86
2024/01/13 01:37:11;;;;;;;40.07;22.60;;;;;;;-1.53;81.45;96356.38;5042889;28;20221;-86
2024/01/13 01:39:37;;;;;;;41.90;22.50;;;;;;;-1.54;81.46;96350.50;5024858;28;20225;-85
2024/01/13 01:42:05;;;;;;;40.23;22.30;;;;;;;-1.58;82.10;96364.22;5045327;28;20217;-86
2024/01/13 01:44:32;;;;;;;44.20;23.57;;;;;;;-1.67;82.79;96377.31;5036218;28;20285;-86
2024/01/13 01:47:03;;;;;;;43.97;23.17;;;;;;;-1.72;83.38;96391.91;5028075;28;20218;-86
2024/01/13 01:49:30;;;;;;;47.93;23.90;;;;;;;-1.78;83.92;96398.09;5028603;28;20228;-86
2024/01/13 01:51:56;;;;;;;42.17;23.70;;;;;;;-1.68;83.74;96400.13;5028474;28;20555;-86
2024/01/13 01:54:33;;;;;;;44.53;23.83;;;;;;;-1.65;83.96;96402.50;5023618;28;20659;-85
2024/01/13 01:57:00;;;;;;;44.03;23.20;;;;;;;-1.61;83.67;96402.25;5027975;28;20236;-86
2024/01/13 01:59:28;;;;;;;45.00;23.83;;;;;;;-1.59;83.52;96392.06;5028573;28;20203;-86
2024/01/13 02:01:56;;;;;;;44.97;24.00;;;;;;;-1.56;83.32;96380.09;5027954;28;20226;-86
2024/01/13 02:04:23;;;;;;;40.63;23.10;;;;;;;-1.55;83.52;96385.97;5030963;28;20258;-86
2024/01/13 02:06:50;;;;;;;43.07;22.40;;;;;;;-1.51;83.48;96382.34;5039255;28;20194;-86
2024/01/13 02:09:20;;;;;;;45.70;24.93;;;;;;;-1.54;83.89;96383.34;5029127;28;20564;-86
2024/01/13 02:11:46;;;;;;;46.50;24.07;;;;;;;-1.52;83.22;96371.44;5026728;28;20206;-86
2024/01/13 02:14:19;;;;;;;46.03;24.03;;;;;;;-1.50;82.97;96361.25;5037946;28;20219;-86
2024/01/13 02:16:49;;;;;;;45.40;24.43;;;;;;;-1.48;82.85;96347.66;5028314;28;20208;-86
2024/01/13 02:19:16;;;;;;;40.17;23.03;;;;;;;-1.53;82.88;96342.03;5028704;28;20210;-86
2024/01/13 02:21:47;;;;;;;46.87;23.33;;;;;;;-1.50;82.35;96343.59;5051221;28;20221;-86
2024/01/13 02:24:13;;;;;;;45.53;24.23;;;;;;;-1.50;82.21;96336.81;5040691;28;20567;-86
2024/01/13 02:26:39;;;;;;;43.20;24.60;;;;;;;-1.48;82.10;96321.59;5030102;28;20214;-86
2024/01/13 02:29:06;;;;;;;43.47;24.47;;;;;;;-1.50;82.20;96324.19;5031956;28;20213;-86
2024/01/13 02:31:32;;;;;;;46.27;24.17;;;;;;;-1.48;82.05;96321.59;5032148;28;20293;-86
2024/01/13 02:33:59;;;;;;;48.17;27.03;;;;;;;-1.48;82.22;96322.41;5042812;28;20201;-86
2024/01/13 02:36:25;;;;;;;46.13;25.83;;;;;;;-1.48;81.93;96309.78;5036789;28;20221;-86
2024/01/13 02:39:02;;;;;;;47.10;26.27;;;;;;;-1.42;81.52;96304.41;5031882;28;20222;-86
2024/01/13 02:41:29;;;;;;;51.83;27.07;;;;;;;-1.37;81.33;96293.22;5031453;28;20321;-84
2024/01/13 02:43:55;;;;;;;47.07;26.57;;;;;;;-1.38;81.25;96291.59;5030957;28;20206;-86
2024/01/13 02:46:21;;;;;;;53.73;27.67;;;;;;;-1.38;80.80;96284.03;5033215;28;20206;-86
2024/01/13 02:48:58;;;;;;;53.43;28.67;;;;;;;-1.40;81.13;96287.44;5031859;28;20222;-86
2024/01/13 02:51:25;;;;;;;49.20;27.57;;;;;;;-1.50;81.00;96282.97;5024685;28;20567;-86
2024/01/13 02:53:51;;;;;;;49.47;26.77;;;;;;;-1.53;81.09;96273.06;5041756;28;20652;-86
2024/01/13 02:56:19;;;;;;;50.70;27.93;;;;;;;-1.51;80.87;96264.50;5039030;28;20204;-86
2024/01/13 02:58:46;;;;;;;49.07;26.57;;;;;;;-1.51;80.74;96248.53;5029544;28;20628;-86
2024/01/13 03:01:12;;;;;;;51.13;27.27;;;;;;;-1.48;80.29;96231.50;5043936;28;20719;-86
2024/01/13 03:03:45;;;;;;;49.50;27.43;;;;;;;-1.45;79.95;96228.00;5042834;28;20213;-86
2024/01/13 03:06:12;;;;;;;50.77;27.30;;;;;;;-1.42;79.80;96210.16;5032279;28;20198;-87
2024/01/13 03:08:39;;;;;;;56.23;29.13;;;;;;;-1.49;79.33;96186.13;5050218;28;20258;-86
2024/01/13 03:11:06;;;;;;;53.90;27.97;;;;;;;-1.63;80.08;96194.50;5043831;28;20217;-86
2024/01/13 03:13:34;;;;;;;51.07;26.90;;;;;;;-1.67;80.52;96218.28;5038325;28;20204;-86
2024/01/13 03:16:07;;;;;;;52.23;27.43;;;;;;;-1.64;79.94;96222.34;5031751;28;20206;-86
2024/01/13 03:18:33;;;;;;;49.90;27.53;;;;;;;-1.61;79.78;96202.00;5030819;28;20217;-86
2024/01/13 03:20:59;;;;;;;50.97;27.93;;;;;;;-1.68;79.54;96190.63;5040889;28;20554;-86
2024/01/13 03:23:25;;;;;;;57.43;28.60;;;;;;;-1.70;79.82;96192.41;5044725;28;20198;-86
2024/01/13 03:25:51;;;;;;;55.00;28.13;;;;;;;-1.73;79.73;96185.03;5030686;28;20202;-86
2024/01/13 03:28:18;;;;;;;52.47;27.33;;;;;;;-1.70;79.75;96187.34;5048969;28;20229;-86
2024/01/13 03:30:54;;;;;;;50.90;27.67;;;;;;;-1.67;79.54;96180.44;5043057;28;20786;-86
2024/01/13 03:33:21;;;;;;;56.03;28.23;;;;;;;-1.64;79.70;96160.06;5036276;28;20209;-86
2024/01/13 03:35:47;;;;;;;50.13;26.77;;;;;;;-1.56;79.53;96162.97;5051219;28;20231;-86
2024/01/13 03:38:14;;;;;;;54.23;28.23;;;;;;;-1.57;78.84;96153.78;5050536;28;20224;-86
2024/01/13 03:40:40;;;;;;;50.67;27.47;;;;;;;-1.54;78.48;96132.59;5040951;28;20202;-86
2024/01/13 03:43:07;;;;;;;56.10;30.10;;;;;;;-1.62;78.97;96147.34;5034365;28;20225;-86
2024/01/13 03:45:40;;;;;;;47.10;28.00;;;;;;;-1.61;78.96;96148.97;5044083;28;20198;-86
2024/01/13 03:48:08;;;;;;;51.70;28.23;;;;;;;-1.56;78.83;96142.78;5028507;28;20222;-86
2024/01/13 03:50:34;;;;;;;47.63;26.30;;;;;;;-1.55;78.62;96129.25;5030525;28;20312;-86
2024/01/13 03:53:01;;;;;;;53.47;27.73;;;;;;;-1.54;78.53;96122.50;5032999;28;20201;-86
2024/01/13 03:55:27;;;;;;;50.90;26.60;;;;;;;-1.55;77.88;96104.00;5031884;28;20194;-86
2024/01/13 03:57:54;;;;;;;47.30;26.53;;;;;;;-1.51;78.22;96109.66;5030731;28;20578;-86
2024/01/13 04:00:23;;;;;;;47.60;26.87;;;;;;;-1.54;78.12;96103.06;5029974;28;20209;-86
2024/01/13 04:02:49;;;;;;;49.90;26.27;;;;;;;-1.58;78.07;96094.09;5028244;28;20233;-86
2024/01/13 04:05:17;;;;;;;49.53;27.17;;;;;;;-1.58;78.07;96093.28;5030216;28;20213;-86
2024/01/13 04:07:44;;;;;;;45.90;26.50;;;;;;;-1.60;77.87;96092.53;5030340;28;20609;-86
2024/01/13 04:10:10;;;;;;;48.63;27.70;;;;;;;-1.62;77.74;96095.16;5047291;28;20228;-86
2024/01/13 04:12:37;;;;;;;46.27;26.03;;;;;;;-1.60;77.88;96105.16;5030748;28;20198;-86
2024/01/13 04:15:12;;;;;;;46.40;26.83;;;;;;;-1.56;77.71;96099.84;5048001;28;20208;-86
2024/01/13 04:17:38;;;;;;;45.40;24.93;;;;;;;-1.53;77.52;96093.78;5050662;28;20248;-86
2024/01/13 04:20:06;;;;;;;41.33;25.30;;;;;;;-1.53;77.58;96071.06;5038831;28;20201;-86
2024/01/13 04:22:33;;;;;;;46.90;26.37;;;;;;;-1.51;77.25;96070.06;5033723;28;20229;-86
2024/01/13 04:25:00;;;;;;;41.40;26.27;;;;;;;-1.54;76.91;96047.53;5048635;28;20251;-86
2024/01/13 04:27:31;;;;;;;38.37;24.27;;;;;;;-1.58;76.77;96040.25;5049581;28;20235;-86
2024/01/13 04:29:58;;;;;;;43.60;24.83;;;;;;;-1.60;77.05;96055.50;5049342;28;20209;-86
2024/01/13 04:32:24;;;;;;;42.93;25.27;;;;;;;-1.60;77.33;96052.97;5049730;28;20193;-86
2024/01/13 04:34:51;;;;;;;45.80;26.40;;;;;;;-1.65;77.27;96051.59;5030245;28;20198;-86
2024/01/13 04:37:17;;;;;;;48.40;26.00;;;;;;;-1.71;77.32;96050.25;5022784;28;20703;-86
2024/01/13 04:39:45;;;;;;;43.83;25.67;;;;;;;-1.77;77.34;96056.50;5029707;28;20210;-86
2024/01/13 04:42:22;;;;;;;46.53;25.83;;;;;;;-1.78;77.85;96067.47;5028943;28;20233;-86
2024/01/13 04:44:48;;;;;;;42.27;23.77;;;;;;;-1.88;77.59;96051.25;5029117;28;20197;-86
2024/01/13 04:47:15;;;;;;;48.00;25.10;;;;;;;-1.89;77.78;96066.47;5034140;28;20213;-86
2024/01/13 04:49:41;;;;;;;36.77;21.57;;;;;;;-1.90;77.96;96065.66;5036185;28;20209;-86
2024/01/13 04:52:09;;;;;;;34.07;20.93;;;;;;;-1.99;77.70;96043.50;5024321;28;20202;-86
2024/01/13 04:54:38;;;;;;;35.40;21.07;;;;;;;-2.00;77.88;96051.97;5029449;28;20213;-85
2024/01/13 04:57:09;;;;;;;35.73;21.13;;;;;;;-2.02;78.01;96050.44;5029354;28;20230;-86
2024/01/13 04:59:35;;;;;;;38.20;21.87;;;;;;;-2.04;78.24;96047.19;5029364;28;20294;-86
2024/01/13 05:02:02;;;;;;;34.73;21.17;;;;;;;-2.05;78.27;96056.44;5033791;28;20227;-86
2024/01/13 05:04:28;;;;;;;38.07;21.20;;;;;;;-1.98;77.99;96056.91;5035192;28;20213;-86
2024/01/13 05:06:55;;;;;;;36.43;21.07;;;;;;;-1.99;78.16;96052.78;5033800;28;20237;-86
2024/01/13 05:09:22;;;;;;;33.97;20.93;;;;;;;-2.06;78.21;96056.53;5027424;28;20220;-85
2024/01/13 05:11:52;;;;;;;38.43;21.70;;;;;;;-2.05;78.46;96078.34;5029136;28;20197;-86
2024/01/13 05:14:19;;;;;;;37.90;21.00;;;;;;;-2.15;78.43;96075.56;5029006;28;20285;-86
2024/01/13 05:16:46;;;;;;;36.87;21.77;;;;;;;-2.16;78.55;96084.81;5045198;28;20200;-85
2024/01/13 05:19:12;;;;;;;36.40;21.40;;;;;;;-2.15;78.66;96088.97;5048833;28;20200;-86
2024/01/13 05:21:39;;;;;;;35.17;21.13;;;;;;;-2.04;78.70;96090.06;5046344;28;20229;-86
2024/01/13 05:24:07;;;;;;;34.23;20.97;;;;;;;-2.00;78.77;96089.00;5037681;28;20224;-85
2024/01/13 05:26:38;;;;;;;37.20;21.90;;;;;;;-1.99;78.30;96076.28;5040735;28;20201;-86
2024/01/13 05:29:05;;;;;;;37.63;22.70;;;;;;;-1.94;78.33;96081.09;5041474;28;20230;-86
2024/01/13 05:31:32;;;;;;;37.23;22.10;;;;;;;-1.89;78.17;96069.81;5028810;28;20208;-86
2024/01/13 05:33:59;;;;;;;41.47;24.37;;;;;;;-1.88;78.02;96063.03;5028904;28;20206;-86
2024/01/13 05:36:28;;;;;;;43.03;24.47;;;;;;;-1.94;77.99;96064.22;5041966;28;20625;-86
2024/01/13 05:39:00;;;;;;;42.53;25.60;;;;;;;-1.99;78.70;96100.72;5035696;28;20218;-85
2024/01/13 05:41:26;;;;;;;48.27;26.27;;;;;;;-2.01;79.04;96105.84;5028341;28;20231;-86
2024/01/13 05:43:53;;;;;;;45.67;26.17;;;;;;;-2.11;79.09;96108.06;5029506;28;20205;-86
2024/01/13 05:46:19;;;;;;;49.67;26.83;;;;;;;-2.15;79.61;96136.09;5034106;28;20227;-86
2024/01/13 05:48:47;;;;;;;42.17;23.77;;;;;;;-2.19;79.78;96127.88;5047947;28;20714;-86
2024/01/13 05:51:13;;;;;;;40.73;23.47;;;;;;;-2.15;79.36;96121.75;5048192;28;20205;-86
2024/01/13 05:53:50;;;;;;;38.97;21.93;;;;;;;-2.12;78.49;96090.50;5048486;28;20204;-86
2024/01/13 05:56:18;;;;;;;37.63;21.00;;;;;;;-2.13;78.85;96093.94;5034827;28;20571;-86
2024/01/13 05:58:44;;;;;;;36.97;21.53;;;;;;;-2.24;78.68;96089.47;5028259;28;20228;-86
2024/01/13 06:01:11;;;;;;;38.50;21.70;;;;;;;-2.27;78.69;96094.69;5029637;28;20205;-86
2024/01/13 06:03:37;;;;;;;39.17;22.37;;;;;;;-2.28;78.99;96102.34;5040689;28;20226;-86
2024/01/13 06:06:11;;;;;;;37.93;22.10;;;;;;;-2.35;79.42;96123.75;5038542;28;20710;-86
2024/01/13 06:08:38;;;;;;;37.93;21.03;;;;;;;-2.33;79.32;96115.22;5047794;28;20220;-86
2024/01/13 06:11:04;;;;;;;37.57;20.63;;;;;;;-2.32;78.71;96099.19;5041182;28;20194;-86
2024/01/13 06:13:30;;;;;;;37.17;21.90;;;;;;;-2.29;78.24;96073.78;5026534;28;20584;-86
2024/01/13 06:15:57;;;;;;;37.10;21.27;;;;;;;-2.37;78.85;96088.53;5022927;28;20206;-86
2024/01/13 06:18:36;;;;;;;;;;;;;;;;;;;;;
2024/01/13 06:21:02;;;;;;;37.43;21.30;;;;;;;-2.44;78.68;96067.91;5047706;28;20212;-86
2024/01/13 06:23:30;;;;;;;36.80;21.47;;;;;;;-2.47;78.64;96074.81;5042630;28;20217;-86
2024/01/13 06:25:59;;;;;;;38.23;21.10;;;;;;;-2.41;78.52;96089.63;5030865;28;20202;-86
2024/01/13 06:28:25;;;;;;;36.57;21.70;;;;;;;-2.44;79.09;96084.72;5026437;28;20256;-85
2024/01/13 06:30:52;;;;;;;37.43;20.10;;;;;;;-2.44;78.88;96077.16;5028105;28;20256;-85
2024/01/13 06:33:21;;;;;;;34.07;20.17;;;;;;;-2.40;78.34;96071.06;5028751;28;20205;-86
2024/01/13 06:35:47;;;;;;;39.23;20.37;;;;;;;-2.36;78.56;96056.59;5031300;28;20202;-86
2024/01/13 06:38:14;;;;;;;38.40;20.97;;;;;;;-2.42;78.18;96042.59;5027843;28;20222;-87
2024/01/13 06:40:42;;;;;;;36.73;20.43;;;;;;;-2.40;77.91;96032.44;5029449;28;20209;-86
2024/01/13 06:43:10;;;;;;;38.53;22.03;;;;;;;-2.45;79.73;96083.91;5032776;28;20228;-86
2024/01/13 06:45:42;;;;;;;35.60;19.67;;;;;;;-2.51;78.66;96074.19;5030778;28;20570;-85
2024/01/13 06:48:08;;;;;;;35.23;20.63;;;;;;;-2.55;78.85;96064.38;5040642;28;20596;-86
2024/01/13 06:50:35;;;;;;;36.60;21.00;;;;;;;-2.52;78.82;96079.31;5047938;28;20227;-86
2024/01/13 06:53:01;;;;;;;34.17;19.93;;;;;;;-2.50;78.44;96067.41;5047533;28;20753;-86
2024/01/13 06:55:28;;;;;;;35.03;19.90;;;;;;;-2.53;77.76;96044.94;5042172;28;20190;-86
2024/01/13 06:57:55;;;;;;;32.00;18.53;;;;;;;-2.61;78.04;96052.91;5027833;28;20245;-86
2024/01/13 07:00:31;;;;;;;31.77;19.00;;;;;;;-2.62;78.17;96060.53;5033464;28;20802;-85
2024/01/13 07:02:57;;;;;;;35.33;20.50;;;;;;;-2.06;100.00;96531.63;5028850;28;20733;-86
2024/01/13 07:05:24;;;;;;;31.17;18.63;;;;;;;-2.05;86.92;96255.75;5027539;28;20206;-85
2024/01/13 07:07:50;;;;;;;38.77;20.27;;;;;;;-2.15;80.92;96047.81;5030017;28;20225;-86
2024/01/13 07:10:17;;;;;;;33.53;19.73;;;;;;;-2.24;79.07;95973.47;5030835;28;20213;-86
2024/01/13 07:12:55;;;;;;;34.97;20.27;;;;;;;-2.35;78.46;95962.41;5030914;28;20199;-86
2024/01/13 07:15:23;;;;;;;32.50;20.03;;;;;;;-2.41;78.75;95968.59;5031280;28;20681;-86
2024/01/13 07:17:49;;;;;;;34.83;19.57;;;;;;;-2.42;79.08;95971.22;5028925;28;20225;-86
2024/01/13 07:20:18;;;;;;;31.20;18.80;;;;;;;-2.46;78.75;95957.97;5030914;28;20974;-86
2024/01/13 07:22:44;;;;;;;35.33;19.53;;;;;;;-2.53;78.50;95944.09;5030933;28;20222;-86
2024/01/13 07:25:18;;;;;;;34.80;17.67;;;;;;;-2.61;78.90;95959.66;5031226;28;20201;-85
2024/01/13 07:27:44;;;;;;;34.13;20.00;;;;;;;-2.66;79.53;95974.22;5030941;28;20234;-86
2024/01/13 07:30:12;;;;;;;34.17;19.70;;;;;;;-2.71;80.27;96000.59;5030304;28;20214;-85
2024/01/13 07:32:40;;;;;;;32.70;18.57;;;;;;;-2.75;80.84;96021.81;5026273;28;20195;-85
2024/01/13 07:35:07;;;;;;;32.37;18.33;;;;;;;-2.75;81.24;96052.06;5030082;28;20205;-86
2024/01/13 07:37:43;;;;;;;33.70;18.10;;;;;;;-2.72;81.40;96050.19;5030173;28;20234;-87
2024/01/13 07:40:10;;;;;;;31.30;17.87;;;;;;;-2.70;81.42;96055.13;5031488;28;20206;-83
2024/01/13 07:42:38;;;;;;;35.20;19.37;;;;;;;-2.69;81.72;96074.41;5037241;28;20245;-83
2024/01/13 07:45:06;;;;;;;33.93;19.27;;;;;;;-2.60;86.27;96189.81;5037020;28;20202;-83
2024/01/13 07:47:32;;;;;;;32.63;19.13;;;;;;;-2.50;84.03;96143.03;5036240;28;20236;-83
2024/01/13 07:50:00;;;;;;;33.20;19.93;;;;;;;-2.42;82.23;96067.81;5028529;28;20203;-87
2024/01/13 07:52:26;;;;;;;34.53;19.43;;;;;;;-2.44;81.17;96041.88;5030314;28;20297;-86
2024/01/13 07:54:53;;;;;;;33.20;19.57;;;;;;;-2.38;80.39;96030.66;5033127;28;20584;-87
2024/01/13 07:57:19;;;;;;;35.87;20.13;;;;;;;-2.36;80.07;96003.63;5029339;28;20233;-86
2024/01/13 07:59:46;;;;;;;35.97;19.50;;;;;;;-2.29;79.97;95997.31;5029614;28;20194;-85
2024/01/13 08:02:12;;;;;;;35.73;20.20;;;;;;;-2.24;80.10;96026.44;5029773;28;20202;-86
2024/01/13 08:04:39;;;;;;;53.37;29.17;;;;;;;-2.28;80.26;96022.47;5026174;28;20691;-86
2024/01/13 08:07:19;;;;;;;44.23;26.70;;;;;;;-2.20;80.07;96024.56;5029172;28;20219;-86
2024/01/13 08:09:47;;;;;;;37.97;20.43;;;;;;;-2.19;79.82;96023.66;5028977;28;20212;-86
2024/01/13 08:12:14;;;;;;;35.67;20.13;;;;;;;-2.17;79.72;96012.59;5029706;28;20230;-86
2024/01/13 08:14:40;;;;;;;34.73;20.60;;;;;;;-2.06;79.32;96013.66;5029329;28;20199;-86
2024/01/13 08:17:08;;;;;;;35.70;20.93;;;;;;;-2.08;79.12;95998.59;5029220;28;20225;-86
2024/01/13 08:19:37;;;;;;;34.87;19.57;;;;;;;-2.21;78.81;95982.56;5029477;28;20230;-86
2024/01/13 08:22:04;;;;;;;40.03;21.73;;;;;;;-2.18;78.89;95983.22;5027398;28;20198;-86
2024/01/13 08:24:32;;;;;;;33.60;20.73;;;;;;;-2.22;79.29;95999.41;5029088;28;20252;-86
2024/01/13 08:26:58;;;;;;;38.97;21.37;;;;;;;-2.21;79.44;96011.13;5023005;28;20206;-86
2024/01/13 08:29:25;;;;;;;35.50;20.70;;;;;;;-2.13;78.59;95998.91;5029451;28;20209;-86
2024/01/13 08:31:51;;;;;;;35.23;20.90;;;;;;;-2.07;78.56;95992.66;5029497;28;20221;-85
2024/01/13 08:34:24;;;;;;;38.70;21.40;;;;;;;-2.17;79.27;96004.19;5029581;28;20202;-86
2024/01/13 08:36:50;;;;;;;38.53;21.50;;;;;;;-2.16;79.19;96000.78;5029212;28;20230;-87
2024/01/13 08:39:16;;;;;;;39.83;21.27;;;;;;;-2.20;79.57;96006.91;5029252;28;20206;-87
2024/01/13 08:41:44;;;;;;;35.97;19.60;;;;;;;-2.22;79.96;96019.59;5029569;28;20225;-87
2024/01/13 08:44:12;;;;;;;33.47;18.67;;;;;;;-2.17;79.76;96015.09;5029428;28;20258;-87
2024/01/13 08:46:47;;;;;;;32.07;18.33;;;;;;;-2.15;81.87;96078.88;5029757;28;20244;-87
2024/01/13 08:49:14;;;;;;;35.43;19.53;;;;;;;-2.05;83.84;96159.06;5029205;28;20202;-86
2024/01/13 08:51:40;;;;;;;29.37;16.73;;;;;;;-2.10;80.59;96046.63;5030190;28;20201;-87
2024/01/13 08:54:07;;;;;;;31.87;19.30;;;;;;;-2.09;79.02;96000.31;5036919;28;20730;-88
2024/01/13 08:56:34;;;;;;;27.23;18.13;;;;;;;-2.06;78.91;95976.63;5030830;28;20198;-87
2024/01/13 08:59:14;;;;;;;27.50;17.40;;;;;;;-2.21;78.82;95954.84;5044394;28;20217;-87
2024/01/13 09:01:40;;;;;;;28.30;16.97;;;;;;;-2.37;78.80;95974.28;5034757;28;20624;-88
2024/01/13 09:04:08;;;;;;;31.53;19.53;;;;;;;-2.37;79.38;95996.97;5029200;28;20252;-87
2024/01/13 09:06:34;;;;;;;35.57;19.57;;;;;;;-2.36;79.43;95991.84;5028997;28;20366;-87
2024/01/13 09:09:00;;;;;;;33.23;19.33;;;;;;;-2.42;79.67;96006.50;5027619;28;20218;-87
2024/01/13 09:11:42;;;;;;;34.27;20.53;;;;;;;-2.47;79.65;96012.59;5028762;28;20214;-88
2024/01/13 09:14:08;;;;;;;36.37;21.37;;;;;;;-2.31;79.47;96016.81;5029111;28;20198;-88
2024/01/13 09:16:39;;;;;;;32.50;19.20;;;;;;;-2.35;79.48;96018.69;5027892;28;20205;-87
2024/01/13 09:19:07;;;;;;;31.87;18.63;;;;;;;-2.37;79.37;96002.81;5028642;28;20226;-87
2024/01/13 09:21:37;;;;;;;31.17;18.53;;;;;;;-2.38;79.16;95986.06;5044877;28;20193;-86
2024/01/13 09:24:04;;;;;;;30.10;17.97;;;;;;;-2.36;78.76;95971.69;5033760;28;20218;-87
2024/01/13 09:26:30;;;;;;;26.57;16.43;;;;;;;-2.32;78.99;95970.59;5028320;28;20194;-87
2024/01/13 09:28:57;;;;;;;25.67;16.80;;;;;;;-2.28;78.31;95964.47;5028282;28;20257;-87
2024/01/13 09:31:23;;;;;;;24.50;15.63;;;;;;;-2.47;78.40;95947.06;5037359;28;20567;-87
2024/01/13 09:33:59;;;;;;;26.80;16.50;;;;;;;-2.49;78.69;95961.47;5036731;28;20200;-87
2024/01/13 09:36:25;;;;;;;28.43;17.50;;;;;;;-2.43;78.94;95950.22;5008744;28;20749;-87
2024/01/13 09:38:52;;;;;;;27.73;17.27;;;;;;;-2.39;78.82;95960.94;5009541;28;20227;-86
2024/01/13 09:41:18;;;;;;;30.20;17.73;;;;;;;-2.33;78.70;95960.59;5026306;28;20208;-87
2024/01/13 09:43:54;;;;;;;29.07;17.50;;;;;;;-2.33;78.31;95955.56;5046843;28;20272;-86
2024/01/13 09:46:26;;;;;;;30.67;17.90;;;;;;;-2.24;78.50;95938.16;5026264;28;20209;-86
2024/01/13 09:48:58;;;;;;;28.07;17.33;;;;;;;-2.15;78.26;95916.66;5041342;28;20233;-85
2024/01/13 09:51:48;;;;;;;;;;;;;;;;;;;;;
2024/01/13 09:54:25;;;;;;;21.57;13.90;;;;;;;-2.26;78.41;95936.63;5047818;28;20204;-86
2024/01/13 09:57:04;;;;;;;23.97;14.97;;;;;;;-2.26;78.36;95941.69;5030345;28;20282;-88
2024/01/13 09:59:31;;;;;;;23.97;14.70;;;;;;;-2.20;78.71;95946.38;5028326;28;20201;-86
2024/01/13 10:01:57;;;;;;;25.70;15.53;;;;;;;-2.12;78.49;95946.75;5046465;28;20206;-83
2024/01/13 10:04:25;;;;;;;24.43;15.33;;;;;;;-2.11;79.18;95971.03;5046401;28;20640;-87
2024/01/13 10:06:51;;;;;;;24.27;15.63;;;;;;;-1.88;84.88;96133.69;5022111;28;20237;-86
2024/01/13 10:09:18;;;;;;;72.77;23.50;;;;;;;-1.58;92.91;96307.88;5026906;28;20199;-86
2024/01/13 10:11:47;;;;;;;49.40;17.93;;;;;;;-1.31;92.73;96293.69;5028448;28;20205;-87
2024/01/13 10:14:14;;;;;;;34.87;16.47;;;;;;;-1.05;94.11;96320.81;5036836;28;20193;-87
2024/01/13 10:16:41;;;;;;;28.60;16.57;;;;;;;-0.89;90.96;96282.81;5048092;28;20576;-86
2024/01/13 10:19:09;;;;;;;35.00;19.93;;;;;;;-0.88;80.39;95995.50;5043315;28;20746;-86
2024/01/13 10:21:37;;;;;;;36.83;19.67;;;;;;;-0.36;100.00;96466.84;5029839;28;20328;-83
2024/01/13 10:24:05;;;;;;;39.57;24.07;;;;;;;-0.06;100.00;96407.75;5029093;28;20309;-86
2024/01/13 10:26:35;;;;;;;35.67;23.03;;;;;;;-0.23;81.37;95927.22;5027756;28;20198;-86
2024/01/13 10:29:01;;;;;;;38.23;22.77;;;;;;;-0.56;76.72;95741.41;5028228;28;20226;-86
2024/01/13 10:31:30;;;;;;;38.67;22.00;;;;;;;-0.86;75.47;95691.22;5027445;28;20194;-85
2024/01/13 10:33:57;;;;;;;31.50;20.33;;;;;;;-1.01;75.20;95661.16;5027900;28;20202;-86
2024/01/13 10:36:42;;;;;;;31.70;20.70;;;;;;;-1.22;75.17;95640.66;5027734;28;20206;-86
2024/01/13 10:39:08;;;;;;;32.43;19.73;;;;;;;-1.36;75.28;95646.66;5027569;28;20240;-86
2024/01/13 10:44:27;;;;;;;32.70;20.87;;;;;;;-1.40;75.63;95642.72;5038587;28;20210;-86
2024/01/13 10:46:58;;;;;;;33.93;20.57;;;;;;;-1.42;75.15;95620.09;5030935;28;20284;-86
2024/01/13 10:49:36;;;;;;;29.17;19.00;;;;;;;-1.49;75.42;95623.94;5026583;28;20194;-86
2024/01/13 10:52:08;;;;;;;27.97;18.57;;;;;;;-1.55;75.41;95634.44;5028535;28;20201;-86
2024/01/13 10:54:35;;;;;;;28.67;18.87;;;;;;;-1.59;75.59;95638.09;5031493;28;20202;-87
2024/01/13 10:57:06;;;;;;;30.67;17.70;;;;;;;-1.59;75.94;95643.13;5031074;28;20198;-86
2024/01/13 10:59:37;;;;;;;25.83;16.23;;;;;;;-1.62;75.34;95640.00;5046659;28;20198;-87
2024/01/13 11:02:11;;;;;;;23.80;15.67;;;;;;;-1.66;75.41;95636.03;5055482;28;20198;-84
2024/01/13 11:04:38;;;;;;;25.00;20.02;;;;;;;-1.45;75.31;95659.88;5034318;28;20458;-87
2024/01/13 11:07:33;;;;;;;30.27;21.33;;;;;;;-1.46;74.43;95622.91;5050184;28;20228;-87
2024/01/13 11:10:16;;;;;;;;;;;;;;;;;;;;;
2024/01/13 11:12:52;;;;;;;27.90;17.93;;;;;;;-1.47;74.51;95603.63;5025102;28;20220;-86
2024/01/13 11:15:38;;;;;;;25.53;17.83;;;;;;;-1.50;74.50;95616.44;5030331;28;20212;-86
2024/01/13 11:18:05;;;;;;;26.23;18.00;;;;;;;-1.41;74.16;95600.69;5030845;28;20225;-86
2024/01/13 11:21:02;;;;;;;27.40;17.77;;;;;;;-1.33;74.36;95608.53;5030904;28;20285;-87
2024/01/13 11:23:48;;;;;;;27.03;17.77;;;;;;;-1.33;73.95;95600.16;5030604;28;20206;-87
2024/01/13 11:26:16;;;;;;;25.57;18.13;;;;;;;-1.52;73.74;95557.69;5025314;28;21614;-86
2024/01/13 11:28:49;;;;;;;26.33;17.27;;;;;;;-1.57;73.66;95539.53;5030435;28;20218;-88
2024/01/13 11:31:37;;;;;;;24.63;16.63;;;;;;;-1.66;73.85;95545.19;5040150;28;20201;-87